createdAt,value
2022-08-17T00:00:34.672Z,40.25
2022-08-17T00:03:24.940Z,43.47
2022-08-17T00:06:02.244Z,44.10
2022-08-17T00:08:34.458Z,42.65
2022-08-17T00:11:04.266Z,45.38
2022-08-17T00:13:40.753Z,40.15
2022-08-17T00:16:20.665Z,39.63
2022-08-17T00:19:12.530Z,37.38
2022-08-17T00:22:28.751Z,40.53
2022-08-17T00:24:30.937Z,39.05
2022-08-17T00:26:57.905Z,37.53
2022-08-17T00:29:24.835Z,37.13
2022-08-17T00:31:51.778Z,37.60
2022-08-17T00:34:18.987Z,36.47
2022-08-17T00:36:46.026Z,37.10
2022-08-17T00:39:13.026Z,42.58
2022-08-17T00:41:40.132Z,44.72
2022-08-17T00:44:12.240Z,41.42
2022-08-17T00:46:42.244Z,40.35
2022-08-17T00:49:12.178Z,36.97
2022-08-17T00:51:56.399Z,35.97
2022-08-17T00:54:41.963Z,36.58
2022-08-17T00:57:16.442Z,41.13
2022-08-17T01:00:01.898Z,39.10
2022-08-17T01:02:42.206Z,37.88
2022-08-17T01:05:18.919Z,42.25
2022-08-17T01:07:48.379Z,40.72
2022-08-17T01:11:00.423Z,38.97
2022-08-17T01:13:09.461Z,44.58
2022-08-17T01:15:41.406Z,43.70
2022-08-17T01:18:13.700Z,42.40
2022-08-17T01:20:49.165Z,42.90
2022-08-17T01:23:20.744Z,36.63
2022-08-17T01:25:57.890Z,40.15
2022-08-17T01:28:33.309Z,37.70
2022-08-17T01:31:15.269Z,39.08
2022-08-17T01:33:42.580Z,37.10
2022-08-17T01:36:09.998Z,38.47
2022-08-17T01:38:39.375Z,36.55
2022-08-17T01:41:12.339Z,36.10
2022-08-17T01:44:02.063Z,36.85
2022-08-17T01:46:35.733Z,42.33
2022-08-17T01:49:09.162Z,38.83
2022-08-17T01:51:37.065Z,39.03
2022-08-17T01:54:09.002Z,40.20
2022-08-17T01:56:49.811Z,36.63
2022-08-17T01:59:18.833Z,45.30
2022-08-17T02:01:46.885Z,47.97
2022-08-17T02:04:14.770Z,48.30
2022-08-17T02:06:52.843Z,50.60
2022-08-17T02:09:25.986Z,54.55
2022-08-17T02:11:56.300Z,55.00
2022-08-17T02:14:24.850Z,51.08
2022-08-17T02:16:52.199Z,47.55
2022-08-17T02:19:19.165Z,50.67
2022-08-17T02:21:49.565Z,51.55
2022-08-17T02:25:00.359Z,48.80
2022-08-17T02:27:09.926Z,50.50
2022-08-17T02:29:37.305Z,53.97
2022-08-17T02:32:05.037Z,55.92
2022-08-17T02:34:32.701Z,53.20
2022-08-17T02:36:59.680Z,53.38
2022-08-17T02:39:26.718Z,48.70
2022-08-17T02:42:02.319Z,49.60
2022-08-17T02:44:38.794Z,53.03
2022-08-17T02:47:07.881Z,54.05
2022-08-17T02:49:34.845Z,54.55
2022-08-17T02:52:06.665Z,57.47
2022-08-17T02:54:39.618Z,57.72
2022-08-17T02:57:10.450Z,63.25
2022-08-17T02:59:39.543Z,64.57
2022-08-17T03:02:10.465Z,67.05
2022-08-17T03:04:38.106Z,67.38
2022-08-17T03:07:05.758Z,69.47
2022-08-17T03:09:33.029Z,69.13
2022-08-17T03:12:10.150Z,72.15
2022-08-17T03:14:41.729Z,74.65
2022-08-17T03:17:12.805Z,72.53
2022-08-17T03:19:44.866Z,70.85
2022-08-17T03:22:35.939Z,68.35
2022-08-17T03:24:59.250Z,66.85
2022-08-17T03:27:26.397Z,66.07
2022-08-17T03:29:54.043Z,63.72
2022-08-17T03:32:21.394Z,63.83
2022-08-17T03:34:48.654Z,64.40
2022-08-17T03:37:15.834Z,62.30
2022-08-17T03:39:43.144Z,62.55
2022-08-17T03:42:32.358Z,60.80
2022-08-17T03:45:02.154Z,61.95
2022-08-17T03:47:47.307Z,62.65
2022-08-17T03:50:38.833Z,67.70
2022-08-17T03:53:36.001Z,63.92
2022-08-17T03:56:23.158Z,63.78
2022-08-17T03:58:50.710Z,65.32
2022-08-17T04:01:18.017Z,66.20
2022-08-17T04:03:45.146Z,62.13
2022-08-17T04:06:12.115Z,71.05
2022-08-17T04:08:39.122Z,65.95
2022-08-17T04:11:06.175Z,73.80
2022-08-17T04:13:33.208Z,75.10
2022-08-17T04:16:00.207Z,81.75
2022-08-17T04:18:27.219Z,85.63
2022-08-17T04:20:54.280Z,81.07
2022-08-17T04:23:21.240Z,91.82
2022-08-17T04:25:51.340Z,90.25
2022-08-17T04:28:20.132Z,83.43
2022-08-17T04:30:48.166Z,81.32
2022-08-17T04:33:24.668Z,91.45
2022-08-17T04:36:00.517Z,90.93
2022-08-17T04:38:35.666Z,86.88
2022-08-17T04:41:22.530Z,97.90
2022-08-17T04:43:54.985Z,88.65
2022-08-17T04:46:35.089Z,83.47
2022-08-17T04:49:07.973Z,94.40
2022-08-17T04:51:54.490Z,88.38
2022-08-17T04:54:23.663Z,96.53
2022-08-17T04:56:50.699Z,94.82
2022-08-17T04:59:21.685Z,86.03
2022-08-17T05:01:51.533Z,82.82
2022-08-17T05:04:34.153Z,80.75
2022-08-17T05:07:04.634Z,82.18
2022-08-17T05:09:31.923Z,88.68
2022-08-17T05:12:02.483Z,77.25
2022-08-17T05:14:33.449Z,76.10
2022-08-17T05:17:01.961Z,78.70
2022-08-17T05:19:34.213Z,84.88
2022-08-17T05:22:05.873Z,87.47
2022-08-17T05:24:43.060Z,88.22
2022-08-17T05:27:19.103Z,88.15
2022-08-17T05:29:46.241Z,88.00
2022-08-17T05:32:38.675Z,85.43
2022-08-17T05:35:01.444Z,87.25
2022-08-17T05:37:28.391Z,78.63
2022-08-17T05:39:55.432Z,78.63
2022-08-17T05:42:22.803Z,71.25
2022-08-17T05:44:49.886Z,83.95
2022-08-17T05:47:18.378Z,84.18
2022-08-17T05:49:45.545Z,80.65
2022-08-17T05:52:49.944Z,79.15
2022-08-17T05:55:43.509Z,89.43
2022-08-17T05:58:16.966Z,81.35
2022-08-17T06:01:09.246Z,84.75
2022-08-17T06:03:53.171Z,81.88
2022-08-17T06:06:59.142Z,90.75
2022-08-17T06:09:49.583Z,81.05
2022-08-17T06:12:43.862Z,81.78
2022-08-17T06:15:47.499Z,78.47
2022-08-17T06:18:18.914Z,81.22
2022-08-17T06:20:53.565Z,81.10
2022-08-17T06:23:36.556Z,80.07
2022-08-17T06:26:13.216Z,85.78
2022-08-17T06:29:18.733Z,89.95
2022-08-17T06:31:46.600Z,83.13
2022-08-17T06:34:13.863Z,88.57
2022-08-17T06:37:13.411Z,87.45
2022-08-17T06:40:11.068Z,84.72
2022-08-17T06:43:38.379Z,91.47
2022-08-17T06:46:25.396Z,94.43
2022-08-17T06:49:19.783Z,101.72
2022-08-17T06:51:50.628Z,86.82
2022-08-17T06:54:46.086Z,88.20
2022-08-17T06:57:28.569Z,94.05
2022-08-17T07:00:22.251Z,93.03
2022-08-17T07:03:37.776Z,92.78
2022-08-17T07:06:15.413Z,97.45
2022-08-17T07:09:10.731Z,96.93
2022-08-17T07:12:03.227Z,83.30
2022-08-17T07:15:20.657Z,96.03
2022-08-17T07:17:48.497Z,94.10
2022-08-17T07:20:22.446Z,94.22
2022-08-17T07:23:00.284Z,95.72
2022-08-17T07:25:30.465Z,93.78
2022-08-17T07:28:05.294Z,98.38
2022-08-17T07:30:46.977Z,103.97
2022-08-17T07:33:20.089Z,100.97
2022-08-17T07:35:49.856Z,99.53
2022-08-17T07:38:31.733Z,98.35
2022-08-17T07:41:02.196Z,85.47
2022-08-17T07:43:40.882Z,95.90
2022-08-17T07:46:39.837Z,87.70
2022-08-17T07:49:09.438Z,100.97
2022-08-17T07:51:47.891Z,88.28
2022-08-17T07:54:23.945Z,92.38
2022-08-17T07:57:03.645Z,96.10
2022-08-17T07:59:37.200Z,108.28
2022-08-17T08:02:33.616Z,104.43
2022-08-17T08:05:10.022Z,104.25
2022-08-17T08:07:52.241Z,103.85
2022-08-17T08:10:45.013Z,104.53
2022-08-17T08:13:25.041Z,103.13
2022-08-17T08:16:14.216Z,104.22
2022-08-17T08:18:56.052Z,103.72
2022-08-17T08:21:51.285Z,100.55
2022-08-17T08:25:16.549Z,105.15
2022-08-17T08:28:11.853Z,104.35
2022-08-17T08:30:47.685Z,104.72
2022-08-17T08:33:29.505Z,110.40
2022-08-17T08:36:11.516Z,108.40
2022-08-17T08:39:04.079Z,105.80
2022-08-17T08:42:02.361Z,99.45
2022-08-17T08:45:00.758Z,110.07
2022-08-17T08:48:23.085Z,97.18
2022-08-17T08:51:21.118Z,100.45
2022-08-17T08:53:53.715Z,93.55
2022-08-17T08:56:31.609Z,100.13
2022-08-17T08:59:44.564Z,98.07
2022-08-17T09:02:51.850Z,103.13
2022-08-17T09:05:57.708Z,103.60
2022-08-17T09:08:48.998Z,95.32
2022-08-17T09:12:01.411Z,92.63
2022-08-17T09:14:45.059Z,82.00
2022-08-17T09:18:21.358Z,89.07
2022-08-17T09:20:50.353Z,88.43
2022-08-17T09:23:30.524Z,86.47
2022-08-17T09:26:07.778Z,95.80
2022-08-17T09:28:38.256Z,95.97
2022-08-17T09:31:35.531Z,102.13
2022-08-17T09:34:38.944Z,99.22
2022-08-17T09:37:19.264Z,90.32
2022-08-17T09:40:08.633Z,90.00
2022-08-17T09:42:55.096Z,86.70
2022-08-17T09:45:52.452Z,93.60
2022-08-17T09:48:32.962Z,93.10
2022-08-17T09:51:40.156Z,89.60
2022-08-17T09:54:41.141Z,89.57
2022-08-17T09:57:30.400Z,78.10
2022-08-17T10:00:18.687Z,79.97
2022-08-17T10:03:24.156Z,85.40
2022-08-17T10:06:02.009Z,73.80
2022-08-17T10:08:51.898Z,86.35
2022-08-17T10:11:57.952Z,92.82
2022-08-17T10:14:55.263Z,83.18
2022-08-17T10:17:41.545Z,90.45
2022-08-17T10:20:20.908Z,79.43
2022-08-17T10:23:10.212Z,87.97
2022-08-17T10:26:04.022Z,87.80
2022-08-17T10:29:06.649Z,90.95
2022-08-17T10:31:48.084Z,78.95
2022-08-17T10:35:20.825Z,77.28
2022-08-17T10:38:05.545Z,85.00
2022-08-17T10:41:02.185Z,88.20
2022-08-17T10:44:39.095Z,74.90
2022-08-17T10:47:07.594Z,77.78
2022-08-17T10:49:53.886Z,73.45
2022-08-17T10:52:21.947Z,72.25
2022-08-17T10:54:51.862Z,78.22
2022-08-17T10:57:33.829Z,83.45
2022-08-17T11:00:16.441Z,70.80
2022-08-17T11:02:51.738Z,75.38
2022-08-17T11:05:43.679Z,82.63
2022-08-17T11:08:46.281Z,78.30
2022-08-17T11:11:36.101Z,68.93
2022-08-17T11:14:53.386Z,61.03
2022-08-17T11:17:30.073Z,56.53
2022-08-17T11:20:34.390Z,51.75
2022-08-17T11:23:57.342Z,65.38
2022-08-17T11:26:34.759Z,58.47
2022-08-17T11:29:27.516Z,62.00
2022-08-17T11:32:15.098Z,69.47
2022-08-17T11:34:44.616Z,77.35
2022-08-17T11:37:35.670Z,77.50
2022-08-17T11:40:24.505Z,63.58
2022-08-17T11:43:25.621Z,62.25
2022-08-17T11:46:10.588Z,62.85
2022-08-17T11:49:04.888Z,80.40
2022-08-17T11:52:01.362Z,71.15
2022-08-17T11:54:33.834Z,70.97
2022-08-17T11:57:27.341Z,69.30
2022-08-17T12:00:12.243Z,57.90
2022-08-17T12:02:48.178Z,52.80
2022-08-17T12:05:18.183Z,50.53
2022-08-17T12:08:15.237Z,48.60
2022-08-17T12:10:58.513Z,51.78
2022-08-17T12:13:27.341Z,50.83
2022-08-17T12:15:58.632Z,52.35
2022-08-17T12:18:35.645Z,50.92
2022-08-17T12:21:20.400Z,53.63
2022-08-17T12:24:05.346Z,47.10
2022-08-17T12:26:35.598Z,51.50
2022-08-17T12:29:18.413Z,49.38
2022-08-17T12:32:02.245Z,45.75
2022-08-17T12:34:39.848Z,50.70
2022-08-17T12:37:24.931Z,47.58
2022-08-17T12:39:53.546Z,44.63
2022-08-17T12:43:00.846Z,48.67
2022-08-17T12:45:35.383Z,48.70
2022-08-17T12:48:08.230Z,52.30
2022-08-17T12:50:38.502Z,51.90
2022-08-17T12:53:12.914Z,50.15
2022-08-17T12:55:40.440Z,49.42
2022-08-17T12:58:14.809Z,45.40
2022-08-17T13:00:56.301Z,42.33
2022-08-17T13:03:27.847Z,40.92
2022-08-17T13:06:12.787Z,35.53
2022-08-17T13:08:44.325Z,30.60
2022-08-17T13:11:14.569Z,26.90
2022-08-17T13:13:45.227Z,26.63
2022-08-17T13:16:16.616Z,27.23
2022-08-17T13:18:58.398Z,24.27
2022-08-17T13:21:30.693Z,25.92
2022-08-17T13:24:21.117Z,23.98
2022-08-17T13:27:15.369Z,23.63
2022-08-17T13:29:45.270Z,23.85
2022-08-17T13:32:31.097Z,25.17
2022-08-17T13:35:14.303Z,23.27
2022-08-17T13:38:02.723Z,19.10
2022-08-17T13:40:36.414Z,18.30
2022-08-17T13:43:05.078Z,18.75
2022-08-17T13:45:50.410Z,16.08
2022-08-17T13:48:26.855Z,17.35
2022-08-17T13:50:56.831Z,16.98
2022-08-17T13:53:52.068Z,15.68
2022-08-17T13:57:04.711Z,16.50
2022-08-17T13:59:55.326Z,16.48
2022-08-17T14:02:26.108Z,15.90
2022-08-17T14:04:55.886Z,16.65
2022-08-17T14:07:33.579Z,16.17
2022-08-17T14:10:12.571Z,14.82
2022-08-17T14:12:42.775Z,13.73
2022-08-17T14:15:13.237Z,15.60
2022-08-17T14:17:40.200Z,13.45
2022-08-17T14:20:12.198Z,14.93
2022-08-17T14:22:44.723Z,14.43
2022-08-17T14:25:18.682Z,12.88
2022-08-17T14:27:53.135Z,13.77
2022-08-17T14:30:25.203Z,13.32
2022-08-17T14:32:53.691Z,13.38
2022-08-17T14:35:23.856Z,13.13
2022-08-17T14:37:52.699Z,13.18
2022-08-17T14:40:24.628Z,12.73
2022-08-17T14:42:55.102Z,13.48
2022-08-17T14:45:32.891Z,13.00
2022-08-17T14:48:04.511Z,12.65
2022-08-17T14:50:32.193Z,13.73
2022-08-17T14:53:04.596Z,14.00
2022-08-17T14:55:32.589Z,12.95
2022-08-17T14:57:59.680Z,14.30
2022-08-17T15:00:27.268Z,13.13
2022-08-17T15:02:58.538Z,14.00
2022-08-17T15:05:33.661Z,12.32
2022-08-17T15:08:02.868Z,14.07
2022-08-17T15:10:30.707Z,12.85
2022-08-17T15:12:58.590Z,12.80
2022-08-17T15:15:26.222Z,13.65
2022-08-17T15:17:53.268Z,13.45
2022-08-17T15:20:25.207Z,13.90
2022-08-17T15:22:56.131Z,15.98
2022-08-17T15:25:29.370Z,15.48
2022-08-17T15:27:56.402Z,14.20
2022-08-17T15:30:25.749Z,13.82
2022-08-17T15:32:55.309Z,14.82
2022-08-17T15:35:27.975Z,14.48
2022-08-17T15:38:11.614Z,14.65
2022-08-17T15:40:44.001Z,14.75
2022-08-17T15:43:17.324Z,14.02
2022-08-17T15:45:58.632Z,13.15
2022-08-17T15:48:41.570Z,12.02
2022-08-17T15:51:25.265Z,11.73
2022-08-17T15:53:56.158Z,13.93
2022-08-17T15:56:25.263Z,12.80
2022-08-17T15:58:54.744Z,13.18
2022-08-17T16:03:01.696Z,13.43
2022-08-17T16:04:26.511Z,14.23
2022-08-17T16:06:58.047Z,13.32
2022-08-17T16:09:25.039Z,13.43
2022-08-17T16:11:55.287Z,14.20
2022-08-17T16:14:24.423Z,13.85
2022-08-17T16:16:59.154Z,14.05
2022-08-17T16:19:26.289Z,14.55
2022-08-17T16:21:53.226Z,13.95
2022-08-17T16:24:20.273Z,13.75
2022-08-17T16:26:47.245Z,15.43
2022-08-17T16:29:14.248Z,15.70
2022-08-17T16:31:42.436Z,17.83
2022-08-17T16:34:17.333Z,18.17
2022-08-17T16:36:55.615Z,15.43
2022-08-17T16:39:29.463Z,17.00
2022-08-17T16:41:57.606Z,16.00
2022-08-17T16:44:27.508Z,20.55
2022-08-17T16:46:54.620Z,18.83
2022-08-17T16:49:25.776Z,18.35
2022-08-17T16:52:09.860Z,18.25
2022-08-17T16:54:43.804Z,17.20
2022-08-17T16:57:12.282Z,16.60
2022-08-17T16:59:43.654Z,16.45
2022-08-17T17:02:26.478Z,17.67
2022-08-17T17:05:45.338Z,15.70
2022-08-17T17:08:38.318Z,17.60
2022-08-17T17:11:29.547Z,18.98
2022-08-17T17:14:02.028Z,15.90
2022-08-17T17:17:03.340Z,18.77
2022-08-17T17:19:45.657Z,16.67
2022-08-17T17:22:45.306Z,16.23
2022-08-17T17:25:27.656Z,18.15
2022-08-17T17:28:25.083Z,18.08
2022-08-17T17:31:10.673Z,17.98
2022-08-17T17:33:47.822Z,18.65
2022-08-17T17:36:32.939Z,17.52
2022-08-17T17:39:31.922Z,18.02
2022-08-17T17:42:07.640Z,16.95
2022-08-17T17:44:42.496Z,17.70
2022-08-17T17:47:12.263Z,16.65
2022-08-17T17:49:46.299Z,16.02
2022-08-17T17:52:31.329Z,17.77
2022-08-17T17:55:25.513Z,17.40
2022-08-17T17:58:13.669Z,16.20
2022-08-17T18:00:49.477Z,16.98
2022-08-17T18:03:22.269Z,17.38
2022-08-17T18:06:10.386Z,17.55
2022-08-17T18:08:55.074Z,16.38
2022-08-17T18:11:51.720Z,18.05
2022-08-17T18:14:46.487Z,17.88
2022-08-17T18:17:14.537Z,17.63
2022-08-17T18:19:41.592Z,17.00
2022-08-17T18:22:19.278Z,17.42
2022-08-17T18:24:54.092Z,16.30
2022-08-17T18:27:37.167Z,17.83
2022-08-17T18:30:13.097Z,18.75
2022-08-17T18:32:43.708Z,18.35
2022-08-17T18:35:16.438Z,18.45
2022-08-17T18:37:52.653Z,18.88
2022-08-17T18:40:19.888Z,18.17
2022-08-17T18:43:06.941Z,18.15
2022-08-17T18:45:52.504Z,19.63
2022-08-17T18:48:33.514Z,21.45
2022-08-17T18:51:33.197Z,22.70
2022-08-17T18:54:25.647Z,21.75
2022-08-17T18:56:55.687Z,22.02
2022-08-17T18:59:38.694Z,20.98
2022-08-17T19:05:13.593Z,23.35
2022-08-17T19:07:45.864Z,23.75
2022-08-17T19:10:33.243Z,22.63
2022-08-17T19:13:23.833Z,22.40
2022-08-17T19:16:17.672Z,23.55
2022-08-17T19:19:08.330Z,22.33
2022-08-17T19:21:53.998Z,24.20
2022-08-17T19:24:24.989Z,23.65
2022-08-17T19:27:43.716Z,22.73
2022-08-17T19:30:17.221Z,23.25
2022-08-17T19:32:44.193Z,26.80
2022-08-17T19:35:17.403Z,27.30
2022-08-17T19:37:56.522Z,25.88
2022-08-17T19:40:52.874Z,28.83
2022-08-17T19:43:50.685Z,34.60
2022-08-17T19:46:50.432Z,33.72
2022-08-17T19:49:41.715Z,32.58
2022-08-17T19:52:57.773Z,34.08
2022-08-17T19:55:43.601Z,37.03
2022-08-17T19:59:35.651Z,33.05
2022-08-17T20:02:31.006Z,34.70
2022-08-17T20:05:07.818Z,33.40
2022-08-17T20:07:54.866Z,31.25
2022-08-17T20:10:54.412Z,37.88
2022-08-17T20:13:49.049Z,32.35
2022-08-17T20:16:19.788Z,36.17
2022-08-17T20:18:59.322Z,35.80
2022-08-17T20:21:31.428Z,36.97
2022-08-17T20:24:26.442Z,37.90
2022-08-17T20:27:50.619Z,33.88
2022-08-17T20:30:23.443Z,36.83
2022-08-17T20:32:55.397Z,34.30
2022-08-17T20:36:21.747Z,35.35
2022-08-17T20:38:57.335Z,34.28
2022-08-17T20:41:28.137Z,35.72
2022-08-17T20:43:58.904Z,39.05
2022-08-17T20:46:40.710Z,36.78
2022-08-17T20:49:40.143Z,36.58
2022-08-17T20:52:15.536Z,36.97
2022-08-17T20:54:57.373Z,26.25
2022-08-17T20:57:33.488Z,28.20
2022-08-17T21:00:29.766Z,29.08
2022-08-17T21:03:24.531Z,32.22
2022-08-17T21:06:14.458Z,34.38
2022-08-17T21:09:12.543Z,36.17
2022-08-17T21:12:03.205Z,37.47
2022-08-17T21:14:59.761Z,37.40
2022-08-17T21:17:49.377Z,34.53
2022-08-17T21:21:25.982Z,34.95
2022-08-17T21:24:34.940Z,34.95
2022-08-17T21:27:29.306Z,32.25
2022-08-17T21:30:02.405Z,33.28
2022-08-17T21:32:41.829Z,32.00
2022-08-17T21:35:22.839Z,31.17
2022-08-17T21:37:58.280Z,33.15
2022-08-17T21:40:30.207Z,30.88
2022-08-17T21:43:29.355Z,33.95
2022-08-17T21:46:03.113Z,36.03
2022-08-17T21:48:42.128Z,35.88
2022-08-17T21:51:27.448Z,34.60
2022-08-17T21:54:02.222Z,34.00
2022-08-17T21:56:36.265Z,38.70
2022-08-17T21:59:06.849Z,39.58
2022-08-17T22:01:37.783Z,38.47
2022-08-17T22:04:11.299Z,40.97
2022-08-17T22:06:56.729Z,40.28
2022-08-17T22:09:31.872Z,40.30
2022-08-17T22:12:02.907Z,40.30
2022-08-17T22:14:53.119Z,40.67
2022-08-17T22:17:23.130Z,39.45
2022-08-17T22:19:53.643Z,38.67
2022-08-17T22:23:06.347Z,36.65
2022-08-17T22:25:38.357Z,37.42
2022-08-17T22:28:11.689Z,39.05
2022-08-17T22:31:04.308Z,38.13
2022-08-17T22:34:07.560Z,39.15
2022-08-17T22:36:40.433Z,38.83
2022-08-17T22:39:09.846Z,38.47
2022-08-17T22:42:00.203Z,35.35
2022-08-17T22:44:46.914Z,34.35
2022-08-17T22:47:17.163Z,29.17
2022-08-17T22:49:53.124Z,32.15
2022-08-17T22:52:59.836Z,34.38
2022-08-17T22:55:48.318Z,35.35
2022-08-17T22:58:39.168Z,32.88
2022-08-17T23:01:28.440Z,33.42
2022-08-17T23:04:05.899Z,31.05
2022-08-17T23:06:36.326Z,34.20
2022-08-17T23:09:06.571Z,29.40
2022-08-17T23:11:50.058Z,28.15
2022-08-17T23:14:20.549Z,23.65
2022-08-17T23:16:51.369Z,25.35
2022-08-17T23:19:21.396Z,24.95
2022-08-17T23:21:51.016Z,25.48
2022-08-17T23:24:24.569Z,26.85
2022-08-17T23:26:52.315Z,28.90
2022-08-17T23:29:21.585Z,33.70
2022-08-17T23:31:50.490Z,41.17
2022-08-17T23:34:18.645Z,36.47
2022-08-17T23:36:51.302Z,34.00
2022-08-17T23:39:24.558Z,31.13
2022-08-17T23:41:59.573Z,30.98
2022-08-17T23:44:27.758Z,30.02
2022-08-17T23:46:54.983Z,34.53
2022-08-17T23:49:23.431Z,44.30
2022-08-17T23:51:50.397Z,45.20
2022-08-17T23:54:23.290Z,42.63
2022-08-17T23:56:50.501Z,40.58
2022-08-17T23:59:21.620Z,37.72
